createdAt,value
2023-01-05T00:01:05.736Z,98493.25
2023-01-05T00:03:32.953Z,98492.25
2023-01-05T00:06:20.178Z,98481.75
2023-01-05T00:08:47.198Z,98476.81
2023-01-05T00:11:35.067Z,98468.98
2023-01-05T00:14:21.024Z,98464.05
2023-01-05T00:17:06.953Z,98460.02
2023-01-05T00:19:52.667Z,98451.17
2023-01-05T00:22:31.080Z,98453.47
2023-01-05T00:24:58.927Z,98446.85
2023-01-05T00:27:26.543Z,98437.23
2023-01-05T00:29:53.710Z,98429.48
2023-01-05T00:32:20.976Z,98425.45
2023-01-05T00:34:48.226Z,98414.74
2023-01-05T00:37:15.300Z,98413.41
2023-01-05T00:39:42.419Z,98400.16
2023-01-05T00:42:09.467Z,98392.21
2023-01-05T00:44:36.378Z,98387.84
2023-01-05T00:47:03.359Z,98384.63
2023-01-05T00:49:30.395Z,98386.36
2023-01-05T00:51:57.364Z,98372.82
2023-01-05T00:54:24.498Z,98369.81
2023-01-05T00:56:51.578Z,98356.48
2023-01-05T00:59:18.800Z,98348.05
2023-01-05T01:01:49.484Z,98340.61
2023-01-05T01:04:16.697Z,98328.51
2023-01-05T01:06:43.820Z,98321.79
2023-01-05T01:09:11.686Z,98308.66
2023-01-05T01:11:38.867Z,98311.80
2023-01-05T01:14:06.917Z,98295.20
2023-01-05T01:16:34.455Z,98287.55
2023-01-05T01:19:05.170Z,98283.09
2023-01-05T01:21:32.963Z,98271.90
2023-01-05T01:24:00.057Z,98273.64
2023-01-05T01:26:27.066Z,98269.61
2023-01-05T01:28:54.033Z,98249.09
2023-01-05T01:31:21.190Z,98261.20
2023-01-05T01:33:48.198Z,98258.45
2023-01-05T01:36:15.250Z,98258.98
2023-01-05T01:38:42.192Z,98241.80
2023-01-05T01:41:11.783Z,98232.42
2023-01-05T01:43:53.551Z,98215.84
2023-01-05T01:46:22.549Z,98210.51
2023-01-05T01:49:10.200Z,98200.90
2023-01-05T01:51:44.660Z,98187.48
2023-01-05T01:54:16.099Z,98186.81
2023-01-05T01:56:47.951Z,98184.29
2023-01-05T01:59:14.818Z,98179.91
2023-01-05T02:01:41.952Z,98166.98
2023-01-05T02:04:09.087Z,98168.67
2023-01-05T02:06:36.360Z,98160.55
2023-01-05T02:09:04.657Z,98154.05
2023-01-05T02:11:38.290Z,98143.97
2023-01-05T02:14:35.593Z,98149.19
2023-01-05T02:17:31.940Z,98141.14
2023-01-05T02:20:33.465Z,98134.43
2023-01-05T02:23:38.190Z,98123.83
2023-01-05T02:26:26.455Z,98114.25
2023-01-05T02:29:22.197Z,98103.94
2023-01-05T02:31:55.691Z,98108.27
2023-01-05T02:34:44.614Z,98103.77
2023-01-05T02:37:36.449Z,98099.09
2023-01-05T02:40:06.740Z,98092.59
2023-01-05T02:42:36.393Z,98088.40
2023-01-05T02:45:07.623Z,98072.27
2023-01-05T02:47:44.404Z,98063.60
2023-01-05T02:50:35.637Z,98058.45
2023-01-05T02:53:25.864Z,98053.33
2023-01-05T02:55:56.731Z,98041.87
2023-01-05T02:58:31.847Z,98033.98
2023-01-05T03:01:02.437Z,98023.27
2023-01-05T03:03:55.462Z,98026.98
2023-01-05T03:06:25.884Z,98010.45
2023-01-05T03:08:55.613Z,98006.45
2023-01-05T03:11:42.517Z,98003.61
2023-01-05T03:14:16.855Z,97991.45
2023-01-05T03:16:43.971Z,97997.90
2023-01-05T03:19:32.526Z,97989.86
2023-01-05T03:22:20.380Z,97990.05
2023-01-05T03:25:06.255Z,97978.48
2023-01-05T03:27:54.096Z,97967.40
2023-01-05T03:30:41.553Z,97968.30
2023-01-05T03:33:31.575Z,97953.68
2023-01-05T03:35:58.856Z,97950.81
2023-01-05T03:38:31.959Z,97949.02
2023-01-05T03:41:00.667Z,97945.73
2023-01-05T03:43:28.695Z,97936.47
2023-01-05T03:45:57.684Z,97934.83
2023-01-05T03:48:27.805Z,97931.39
2023-01-05T03:50:55.173Z,97919.39
2023-01-05T03:53:23.226Z,97921.26
2023-01-05T03:55:50.322Z,97918.30
2023-01-05T03:58:17.775Z,97916.20
2023-01-05T04:00:47.004Z,97912.71
2023-01-05T04:03:14.436Z,97905.33
2023-01-05T04:05:41.850Z,97907.86
2023-01-05T04:08:08.890Z,97914.02
2023-01-05T04:10:36.140Z,97913.94
2023-01-05T04:13:03.169Z,97906.52
2023-01-05T04:15:30.393Z,97903.77
2023-01-05T04:17:58.410Z,97900.58
2023-01-05T04:20:25.472Z,97887.70
2023-01-05T04:22:52.801Z,97871.15
2023-01-05T04:25:20.644Z,97880.19
2023-01-05T04:27:47.716Z,97883.69
2023-01-05T04:30:14.943Z,97866.80
2023-01-05T04:32:42.021Z,97857.52
2023-01-05T04:35:12.038Z,97842.79
2023-01-05T04:37:40.098Z,97850.48
2023-01-05T04:40:08.725Z,97841.95
2023-01-05T04:42:42.221Z,97830.45
2023-01-05T04:45:10.514Z,97841.80
2023-01-05T04:47:38.168Z,97837.33
2023-01-05T04:50:05.951Z,97834.70
2023-01-05T04:52:32.946Z,97833.09
2023-01-05T04:55:00.012Z,97825.36
2023-01-05T04:57:27.259Z,97820.98
2023-01-05T04:59:54.137Z,97820.29
2023-01-05T05:02:21.374Z,97809.41
2023-01-05T05:04:49.261Z,97809.58
2023-01-05T05:07:16.972Z,97794.65
2023-01-05T05:09:44.160Z,97796.14
2023-01-05T05:12:11.242Z,97790.27
2023-01-05T05:14:38.761Z,97794.16
2023-01-05T05:17:06.144Z,97796.30
2023-01-05T05:19:33.185Z,97791.44
2023-01-05T05:22:00.211Z,97782.54
2023-01-05T05:24:27.899Z,97786.86
2023-01-05T05:26:54.909Z,97784.93
2023-01-05T05:29:21.845Z,97777.95
2023-01-05T05:31:48.786Z,97770.45
2023-01-05T05:34:15.687Z,97775.43
2023-01-05T05:36:42.750Z,97774.31
2023-01-05T05:39:12.243Z,97765.63
2023-01-05T05:41:39.110Z,97768.37
2023-01-05T05:44:06.012Z,97748.11
2023-01-05T05:46:32.937Z,97751.11
2023-01-05T05:49:00.331Z,97746.30
2023-01-05T05:51:27.281Z,97741.42
2023-01-05T05:53:54.161Z,97736.83
2023-01-05T05:56:21.033Z,97735.70
2023-01-05T05:58:47.862Z,97736.89
2023-01-05T06:01:14.901Z,97735.37
2023-01-05T06:03:41.999Z,97730.35
2023-01-05T06:06:09.123Z,97722.36
2023-01-05T06:08:36.097Z,97722.98
2023-01-05T06:11:02.992Z,97715.11
2023-01-05T06:13:29.955Z,97719.41
2023-01-05T06:15:56.817Z,97715.39
2023-01-05T06:18:23.998Z,97709.21
2023-01-05T06:20:53.950Z,97711.55
2023-01-05T06:23:23.295Z,97709.42
2023-01-05T06:25:50.261Z,97701.23
2023-01-05T06:28:20.368Z,97694.74
2023-01-05T06:30:47.757Z,97685.21
2023-01-05T06:33:14.601Z,97685.58
2023-01-05T06:35:41.512Z,97690.36
2023-01-05T06:38:08.476Z,97687.19
2023-01-05T06:40:35.396Z,97680.18
2023-01-05T06:43:02.427Z,97685.44
2023-01-05T06:45:29.424Z,97684.72
2023-01-05T06:47:58.045Z,97677.70
2023-01-05T06:50:25.034Z,97663.64
2023-01-05T06:52:51.964Z,97675.14
2023-01-05T06:55:19.143Z,97672.98
2023-01-05T06:57:46.226Z,97666.77
2023-01-05T07:00:14.524Z,97670.80
2023-01-05T07:02:41.800Z,97667.95
2023-01-05T07:05:09.100Z,97671.35
2023-01-05T07:07:36.413Z,97666.24
2023-01-05T07:10:03.825Z,97656.39
2023-01-05T07:12:30.639Z,97657.92
2023-01-05T07:14:57.980Z,97668.28
2023-01-05T07:17:25.754Z,97657.08
2023-01-05T07:19:52.762Z,97660.95
2023-01-05T07:22:19.702Z,97660.84
2023-01-05T07:24:46.615Z,97655.37
2023-01-05T07:27:13.598Z,97651.73
2023-01-05T07:29:40.478Z,97654.52
2023-01-05T07:32:07.485Z,97652.38
2023-01-05T07:34:34.685Z,97652.94
2023-01-05T07:37:01.839Z,97643.04
2023-01-05T07:39:28.704Z,97647.80
2023-01-05T07:41:55.577Z,97642.54
2023-01-05T07:44:24.830Z,97640.02
2023-01-05T07:46:51.774Z,97640.09
2023-01-05T07:49:18.804Z,97633.69
2023-01-05T07:51:46.039Z,97642.11
2023-01-05T07:54:12.921Z,97636.61
2023-01-05T07:56:39.940Z,97633.10
2023-01-05T07:59:06.800Z,97631.10
2023-01-05T08:01:33.853Z,97635.05
2023-01-05T08:04:00.873Z,97625.36
2023-01-05T08:06:27.818Z,97625.09
2023-01-05T08:08:55.997Z,97623.89
2023-01-05T08:11:23.174Z,97623.70
2023-01-05T08:14:05.694Z,97619.72
2023-01-05T08:16:33.269Z,97626.04
2023-01-05T08:19:00.341Z,97624.98
2023-01-05T08:21:27.902Z,97617.75
2023-01-05T08:23:54.947Z,97617.81
2023-01-05T08:26:23.339Z,97620.45
2023-01-05T08:28:51.030Z,97616.71
2023-01-05T08:31:26.106Z,97617.94
2023-01-05T08:33:57.982Z,97614.09
2023-01-05T08:36:25.086Z,97626.66
2023-01-05T08:38:53.013Z,97615.46
2023-01-05T08:41:25.049Z,97619.85
2023-01-05T08:43:53.495Z,97608.22
2023-01-05T08:46:21.567Z,97606.48
2023-01-05T08:48:52.657Z,97604.30
2023-01-05T08:51:19.738Z,97604.05
2023-01-05T08:53:46.793Z,97598.13
2023-01-05T08:56:14.302Z,97593.29
2023-01-05T08:58:41.463Z,97587.42
2023-01-05T09:01:13.734Z,97587.86
2023-01-05T09:03:40.963Z,97580.81
2023-01-05T09:06:09.557Z,97569.42
2023-01-05T09:08:36.533Z,97576.66
2023-01-05T09:11:11.196Z,97569.27
2023-01-05T09:13:38.188Z,97568.11
2023-01-05T09:16:09.608Z,97555.58
2023-01-05T09:18:36.911Z,97559.11
2023-01-05T09:21:06.396Z,97549.75
2023-01-05T09:23:33.983Z,97551.27
2023-01-05T09:26:23.138Z,97549.41
2023-01-05T09:28:50.268Z,97539.96
2023-01-05T09:31:19.843Z,97543.53
2023-01-05T09:33:47.388Z,97540.05
2023-01-05T09:36:15.348Z,97537.09
2023-01-05T09:38:47.014Z,97533.45
2023-01-05T09:41:20.459Z,97533.98
2023-01-05T09:43:50.201Z,97529.80
2023-01-05T09:46:19.093Z,97530.95
2023-01-05T09:48:48.561Z,97525.45
2023-01-05T09:51:15.657Z,97520.56
2023-01-05T09:53:42.682Z,97515.11
2023-01-05T09:57:07.357Z,97516.67
2023-01-05T09:59:23.802Z,97511.77
2023-01-05T10:01:51.617Z,97513.73
2023-01-05T10:04:24.044Z,97506.97
2023-01-05T10:06:56.964Z,97502.19
2023-01-05T10:09:25.247Z,97498.77
2023-01-05T10:12:18.681Z,97492.02
2023-01-05T10:14:56.297Z,97495.36
2023-01-05T10:17:41.023Z,97488.81
2023-01-05T10:20:17.136Z,97493.02
2023-01-05T10:22:51.207Z,97489.02
2023-01-05T10:25:31.569Z,97482.27
2023-01-05T10:28:10.460Z,97474.77
2023-01-05T10:30:47.061Z,97476.85
2023-01-05T10:33:52.054Z,97471.14
2023-01-05T10:37:07.317Z,97472.64
2023-01-05T10:40:08.564Z,97464.70
2023-01-05T10:42:55.128Z,97467.60
2023-01-05T10:45:24.692Z,97457.99
2023-01-05T10:47:54.983Z,97456.30
2023-01-05T10:50:41.522Z,97451.75
2023-01-05T10:53:13.473Z,97443.42
2023-01-05T10:55:55.492Z,97449.04
2023-01-05T10:58:32.202Z,97444.45
2023-01-05T11:01:25.390Z,97440.23
2023-01-05T11:04:34.243Z,97435.95
2023-01-05T11:07:07.084Z,97435.16
2023-01-05T11:09:40.108Z,97436.95
2023-01-05T11:12:19.028Z,97427.20
2023-01-05T11:14:58.464Z,97429.51
2023-01-05T11:17:28.038Z,97428.48
2023-01-05T11:19:58.049Z,97428.10
2023-01-05T11:22:37.553Z,97427.60
2023-01-05T11:25:25.589Z,97426.21
2023-01-05T11:28:19.142Z,97414.36
2023-01-05T11:31:05.753Z,97409.45
2023-01-05T11:41:07.586Z,97398.91
2023-01-05T11:43:34.603Z,97393.03
2023-01-05T11:46:03.704Z,97399.02
2023-01-05T11:48:33.710Z,97400.86
2023-01-05T11:51:01.040Z,97405.52
2023-01-05T11:53:34.320Z,97400.91
2023-01-05T11:56:20.435Z,97398.39
2023-01-05T11:58:49.039Z,97395.77
2023-01-05T12:01:31.566Z,97390.20
2023-01-05T12:04:32.627Z,97401.47
2023-01-05T12:07:02.990Z,97393.23
2023-01-05T12:09:42.194Z,97404.96
2023-01-05T12:12:26.069Z,97395.97
2023-01-05T12:15:05.414Z,97383.55
2023-01-05T12:17:54.770Z,97392.98
2023-01-05T12:20:44.679Z,97376.10
2023-01-05T12:23:49.592Z,97377.61
2023-01-05T12:26:26.103Z,97361.02
2023-01-05T12:35:27.920Z,97347.80
2023-01-05T12:38:01.062Z,97351.41
2023-01-05T12:40:53.831Z,97362.39
2023-01-05T12:43:33.030Z,97366.15
2023-01-05T12:46:38.079Z,97364.55
2023-01-05T12:49:08.815Z,97362.50
2023-01-05T12:52:15.817Z,97361.81
2023-01-05T12:54:46.720Z,97351.54
2023-01-05T12:57:17.295Z,97374.90
2023-01-05T13:00:00.996Z,97375.16
2023-01-05T13:02:31.374Z,97383.13
2023-01-05T13:05:03.449Z,97382.84
2023-01-05T13:07:43.434Z,97382.29
2023-01-05T13:10:20.553Z,97390.03
2023-01-05T13:12:48.819Z,97392.92
2023-01-05T13:15:22.499Z,97391.92
2023-01-05T13:17:50.941Z,97390.98
2023-01-05T13:20:41.161Z,97388.73
2023-01-05T13:23:12.203Z,97395.56
2023-01-05T13:33:36.139Z,97395.14
2023-01-05T13:36:41.888Z,97400.83
2023-01-05T13:39:42.686Z,97408.84
2023-01-05T13:42:17.656Z,97419.84
2023-01-05T13:45:09.427Z,97408.45
2023-01-05T13:47:46.047Z,97402.90
2023-01-05T13:50:29.035Z,97420.05
2023-01-05T13:53:07.078Z,97416.98
2023-01-05T13:55:37.645Z,97418.48
2023-01-05T13:58:28.006Z,97412.25
2023-01-05T14:00:55.181Z,97418.41
2023-01-05T14:03:29.711Z,97419.64
2023-01-05T14:05:58.198Z,97426.73
2023-01-05T14:08:29.743Z,97420.12
2023-01-05T14:11:13.864Z,97420.77
2023-01-05T14:13:47.256Z,97425.11
2023-01-05T14:16:44.100Z,97424.52
2023-01-05T14:19:27.425Z,97422.88
2023-01-05T14:21:56.655Z,97424.25
2023-01-05T14:27:09.260Z,97437.61
2023-01-05T14:29:45.794Z,97434.37
2023-01-05T14:32:20.100Z,97421.98
2023-01-05T14:34:52.242Z,97437.55
2023-01-05T14:37:24.641Z,97442.98
2023-01-05T14:40:00.414Z,97428.52
2023-01-05T14:42:40.147Z,97436.91
2023-01-05T14:45:10.061Z,97439.77
2023-01-05T14:47:41.543Z,97430.45
2023-01-05T14:50:29.284Z,97450.38
2023-01-05T14:52:56.331Z,97444.83
2023-01-05T14:55:38.595Z,97451.02
2023-01-05T14:58:11.729Z,97444.36
2023-01-05T15:00:57.799Z,97448.47
2023-01-05T15:03:39.282Z,97454.50
2023-01-05T15:06:10.153Z,97461.96
2023-01-05T15:09:16.332Z,97458.87
2023-01-05T15:12:24.141Z,97463.89
2023-01-05T15:15:03.031Z,97467.66
2023-01-05T15:17:41.783Z,97470.33
2023-01-05T15:20:41.459Z,97464.36
2023-01-05T15:23:18.189Z,97469.14
2023-01-05T15:26:02.845Z,97466.80
2023-01-05T15:31:38.163Z,97466.44
2023-01-05T15:34:27.785Z,97466.04
2023-01-05T15:37:15.457Z,97469.91
2023-01-05T15:39:53.464Z,97461.63
2023-01-05T15:42:30.139Z,97477.67
2023-01-05T15:44:58.380Z,97474.04
2023-01-05T15:47:26.719Z,97466.25
2023-01-05T15:49:58.330Z,97475.39
2023-01-05T15:52:35.323Z,97487.42
2023-01-05T15:55:12.616Z,97467.15
2023-01-05T15:57:39.761Z,97468.36
2023-01-05T16:00:27.911Z,97475.36
2023-01-05T16:02:55.053Z,97461.10
2023-01-05T16:05:24.156Z,97473.98
2023-01-05T16:07:58.579Z,97475.23
2023-01-05T16:10:42.714Z,97470.05
2023-01-05T16:13:30.806Z,97482.02
2023-01-05T16:15:59.450Z,97487.70
2023-01-05T16:18:34.477Z,97486.64
2023-01-05T16:21:06.355Z,97493.60
2023-01-05T16:23:45.277Z,97493.30
2023-01-05T16:26:17.529Z,97501.84
2023-01-05T16:28:45.306Z,97505.45
2023-01-05T16:34:16.601Z,97499.41
2023-01-05T16:37:16.987Z,97504.60
2023-01-05T16:39:44.959Z,97501.74
2023-01-05T16:42:39.985Z,97495.47
2023-01-05T16:45:19.243Z,97503.75
2023-01-05T16:47:46.457Z,97499.79
2023-01-05T16:50:20.746Z,97497.95
2023-01-05T16:53:05.736Z,97502.78
2023-01-05T16:55:35.758Z,97504.66
2023-01-05T16:58:04.846Z,97506.96
2023-01-05T17:00:33.730Z,97515.16
2023-01-05T17:03:31.000Z,97520.91
2023-01-05T17:06:01.573Z,97515.30
2023-01-05T17:08:31.879Z,97514.14
2023-01-05T17:10:59.771Z,97515.06
2023-01-05T17:13:38.522Z,97522.76
2023-01-05T17:16:06.196Z,97521.49
2023-01-05T17:18:33.154Z,97526.71
2023-01-05T17:21:03.036Z,97532.69
2023-01-05T17:23:33.652Z,97529.39
2023-01-05T17:26:06.603Z,97526.81
2023-01-05T17:28:33.556Z,97531.24
2023-01-05T17:31:00.655Z,97528.23
2023-01-05T17:33:27.966Z,97519.58
2023-01-05T17:35:55.021Z,97527.63
2023-01-05T17:38:22.409Z,97530.58
2023-01-05T17:40:51.650Z,97527.64
2023-01-05T17:43:19.128Z,97525.77
2023-01-05T17:45:46.205Z,97525.91
2023-01-05T17:48:15.178Z,97519.35
2023-01-05T17:50:42.095Z,97525.89
2023-01-05T17:53:09.124Z,97525.43
2023-01-05T17:55:36.258Z,97529.76
2023-01-05T17:58:03.379Z,97528.89
2023-01-05T18:00:34.756Z,97531.83
2023-01-05T18:03:01.715Z,97527.23
2023-01-05T18:05:30.200Z,97533.31
2023-01-05T18:07:57.247Z,97532.59
2023-01-05T18:10:26.772Z,97541.67
2023-01-05T18:12:55.997Z,97543.41
2023-01-05T18:15:23.040Z,97552.01
2023-01-05T18:17:50.077Z,97543.94
2023-01-05T18:20:19.812Z,97543.39
2023-01-05T18:22:51.075Z,97546.34
2023-01-05T18:25:18.153Z,97546.23
2023-01-05T18:27:45.089Z,97541.29
2023-01-05T18:30:12.647Z,97551.62
2023-01-05T18:32:39.759Z,97555.71
2023-01-05T18:35:09.892Z,97558.27
2023-01-05T18:37:39.004Z,97559.95
2023-01-05T18:40:09.579Z,97557.77
2023-01-05T18:42:37.208Z,97557.86
2023-01-05T18:45:18.900Z,97557.67
2023-01-05T18:47:56.354Z,97548.57
2023-01-05T18:50:23.854Z,97551.24
2023-01-05T18:52:50.895Z,97546.09
2023-01-05T18:55:18.234Z,97543.27
2023-01-05T18:57:45.202Z,97543.86
2023-01-05T19:00:12.986Z,97544.20
2023-01-05T19:02:40.451Z,97543.38
2023-01-05T19:05:11.494Z,97552.45
2023-01-05T19:07:39.873Z,97556.04
2023-01-05T19:10:07.254Z,97563.90
2023-01-05T19:12:34.428Z,97555.21
2023-01-05T19:15:01.472Z,97558.20
2023-01-05T19:17:28.516Z,97567.34
2023-01-05T19:19:57.670Z,97562.70
2023-01-05T19:22:24.732Z,97566.16
2023-01-05T19:24:52.361Z,97567.73
2023-01-05T19:27:22.085Z,97578.36
2023-01-05T19:29:48.987Z,97577.54
2023-01-05T19:32:15.910Z,97578.50
2023-01-05T19:34:42.921Z,97574.14
2023-01-05T19:37:09.866Z,97580.69
2023-01-05T19:39:36.798Z,97577.42
2023-01-05T19:42:03.809Z,97575.19
2023-01-05T19:44:31.082Z,97586.27
2023-01-05T19:46:58.103Z,97578.69
2023-01-05T19:49:26.214Z,97582.77
2023-01-05T19:51:53.147Z,97585.89
2023-01-05T19:54:22.203Z,97592.32
2023-01-05T19:56:49.418Z,97584.64
2023-01-05T19:59:22.148Z,97585.60
2023-01-05T20:01:49.187Z,97587.68
2023-01-05T20:04:16.342Z,97584.95
2023-01-05T20:06:45.208Z,97589.73
2023-01-05T20:09:17.839Z,97593.59
2023-01-05T20:11:51.706Z,97600.11
2023-01-05T20:14:21.129Z,97598.52
2023-01-05T20:16:49.709Z,97602.39
2023-01-05T20:19:18.966Z,97603.83
2023-01-05T20:21:47.283Z,97610.05
2023-01-05T20:24:18.642Z,97614.73
2023-01-05T20:26:46.819Z,97611.45
2023-01-05T20:29:14.773Z,97620.75
2023-01-05T20:31:44.225Z,97614.78
2023-01-05T20:34:14.582Z,97610.39
2023-01-05T20:36:41.638Z,97614.76
2023-01-05T20:39:09.296Z,97616.98
2023-01-05T20:41:39.382Z,97610.81
2023-01-05T20:44:06.607Z,97607.16
2023-01-05T20:46:36.278Z,97608.33
2023-01-05T20:49:03.448Z,97615.54
2023-01-05T20:51:30.453Z,97614.34
2023-01-05T20:53:58.485Z,97617.08
2023-01-05T20:56:26.853Z,97626.15
2023-01-05T20:58:54.253Z,97629.34
2023-01-05T21:01:21.709Z,97630.05
2023-01-05T21:03:50.257Z,97631.48
2023-01-05T21:06:17.820Z,97633.64
2023-01-05T21:08:51.334Z,97639.10
2023-01-05T21:11:18.615Z,97640.19
2023-01-05T21:13:47.212Z,97643.55
2023-01-05T21:16:23.339Z,97650.07
2023-01-05T21:18:50.430Z,97651.05
2023-01-05T21:21:19.258Z,97657.88
2023-01-05T21:23:47.588Z,97659.70
2023-01-05T21:26:15.829Z,97658.93
2023-01-05T21:28:43.198Z,97662.40
2023-01-05T21:31:15.455Z,97667.48
2023-01-05T21:33:42.638Z,97662.69
2023-01-05T21:36:14.786Z,97666.34
2023-01-05T21:39:01.763Z,97653.53
2023-01-05T21:41:47.499Z,97653.46
2023-01-05T21:44:17.309Z,97663.01
2023-01-05T21:46:44.390Z,97658.25
2023-01-05T21:49:11.662Z,97664.22
2023-01-05T21:51:57.306Z,97665.70
2023-01-05T21:54:43.249Z,97662.95
2023-01-05T21:57:10.325Z,97670.04
2023-01-05T21:59:37.290Z,97673.55
2023-01-05T22:02:04.341Z,97677.30
2023-01-05T22:04:31.265Z,97690.54
2023-01-05T22:06:58.170Z,97678.74
2023-01-05T22:09:25.183Z,97680.20
2023-01-05T22:11:52.141Z,97680.23
2023-01-05T22:14:19.205Z,97679.67
2023-01-05T22:16:46.189Z,97688.83
2023-01-05T22:19:13.129Z,97699.65
2023-01-05T22:21:40.182Z,97691.27
2023-01-05T22:24:08.970Z,97699.95
2023-01-05T22:26:35.948Z,97704.38
2023-01-05T22:29:03.077Z,97702.73
2023-01-05T22:31:30.873Z,97704.05
2023-01-05T22:33:59.360Z,97698.11
2023-01-05T22:36:29.192Z,97705.57
2023-01-05T22:38:56.240Z,97701.81
2023-01-05T22:41:28.150Z,97705.58
2023-01-05T22:43:56.195Z,97709.71
2023-01-05T22:46:24.720Z,97695.09
2023-01-05T22:48:53.572Z,97708.67
2023-01-05T22:51:28.938Z,97712.30
2023-01-05T22:53:56.527Z,97709.42
2023-01-05T22:56:24.799Z,97708.94
2023-01-05T22:58:52.050Z,97716.85
2023-01-05T23:01:21.261Z,97713.11
2023-01-05T23:03:48.617Z,97714.41
2023-01-05T23:06:15.644Z,97721.98
2023-01-05T23:08:42.962Z,97717.86
2023-01-05T23:11:17.583Z,97722.73
2023-01-05T23:13:44.781Z,97736.54
2023-01-05T23:16:12.234Z,97734.38
2023-01-05T23:18:39.541Z,97732.92
2023-01-05T23:21:08.819Z,97736.69
2023-01-05T23:23:36.036Z,97733.28
2023-01-05T23:26:03.486Z,97738.77
2023-01-05T23:28:30.547Z,97738.28
2023-01-05T23:30:58.587Z,97736.09
2023-01-05T23:33:28.529Z,97738.89
2023-01-05T23:35:58.988Z,97748.48
2023-01-05T23:38:27.991Z,97744.69
2023-01-05T23:41:00.577Z,97750.16
2023-01-05T23:43:30.219Z,97749.42
2023-01-05T23:46:20.441Z,97759.77
2023-01-05T23:48:51.556Z,97761.83
2023-01-05T23:51:21.106Z,97769.36
2023-01-05T23:53:52.463Z,97771.48
2023-01-05T23:56:28.657Z,97778.48
2023-01-05T23:59:04.413Z,97783.45
